sensor_id;sensor_type;location;lat;lon;timestamp;temperature;humidity
13682;DHT22;6913;49.892;7.936;2023-04-23T15:47:02;15.60;99.90
13682;DHT22;6913;49.892;7.936;2023-04-23T15:49:29;15.50;99.90
13682;DHT22;6913;49.892;7.936;2023-04-23T15:51:57;15.30;99.90
13682;DHT22;6913;49.892;7.936;2023-04-23T15:54:24;15.30;99.90
13682;DHT22;6913;49.892;7.936;2023-04-23T15:56:51;15.40;99.90
13682;DHT22;6913;49.892;7.936;2023-04-23T15:59:20;15.50;99.90
13682;DHT22;6913;49.892;7.936;2023-04-23T16:01:47;15.40;99.90
13682;DHT22;6913;49.892;7.936;2023-04-23T16:04:14;15.50;99.90
13682;DHT22;6913;49.892;7.936;2023-04-23T16:09:10;15.30;99.90
13682;DHT22;6913;49.892;7.936;2023-04-23T16:11:37;15.40;99.90
13682;DHT22;6913;49.892;7.936;2023-04-23T16:14:05;15.40;99.90
13682;DHT22;6913;49.892;7.936;2023-04-23T16:16:33;15.10;99.90
13682;DHT22;6913;49.892;7.936;2023-04-23T16:19:00;15.20;99.90
13682;DHT22;6913;49.892;7.936;2023-04-23T16:21:27;15.50;99.90
13682;DHT22;6913;49.892;7.936;2023-04-23T16:23:54;15.60;99.90
13682;DHT22;6913;49.892;7.936;2023-04-23T16:26:22;15.70;99.90
13682;DHT22;6913;49.892;7.936;2023-04-23T16:28:50;15.70;99.90
13682;DHT22;6913;49.892;7.936;2023-04-23T16:31:17;15.70;99.90
13682;DHT22;6913;49.892;7.936;2023-04-23T16:33:43;15.70;99.90
13682;DHT22;6913;49.892;7.936;2023-04-23T16:36:10;15.70;99.90
13682;DHT22;6913;49.892;7.936;2023-04-23T16:38:37;15.70;99.90
13682;DHT22;6913;49.892;7.936;2023-04-23T16:41:04;15.70;99.90
13682;DHT22;6913;49.892;7.936;2023-04-23T16:43:32;15.70;99.90
13682;DHT22;6913;49.892;7.936;2023-04-23T16:45:59;15.70;99.90
13682;DHT22;6913;49.892;7.936;2023-04-23T16:48:26;15.70;99.90
13682;DHT22;6913;49.892;7.936;2023-04-23T16:50:52;15.60;99.90
13682;DHT22;6913;49.892;7.936;2023-04-23T16:53:21;15.50;99.90
13682;DHT22;6913;49.892;7.936;2023-04-23T16:58:15;15.30;99.90
13682;DHT22;6913;49.892;7.936;2023-04-23T17:00:44;15.00;99.90
13682;DHT22;6913;49.892;7.936;2023-04-23T17:03:11;14.80;99.90
13682;DHT22;6913;49.892;7.936;2023-04-23T17:05:38;14.40;99.90
13682;DHT22;6913;49.892;7.936;2023-04-23T17:08:05;14.30;99.90
13682;DHT22;6913;49.892;7.936;2023-04-23T17:10:32;14.60;99.90
13682;DHT22;6913;49.892;7.936;2023-04-23T17:12:58;14.80;99.90
13682;DHT22;6913;49.892;7.936;2023-04-23T17:15:26;14.80;99.90
13682;DHT22;6913;49.892;7.936;2023-04-23T17:17:54;14.90;99.90
13682;DHT22;6913;49.892;7.936;2023-04-23T17:20:21;14.90;99.90
13682;DHT22;6913;49.892;7.936;2023-04-23T17:22:48;15.00;99.90
13682;DHT22;6913;49.892;7.936;2023-04-23T17:25:15;14.90;99.90
13682;DHT22;6913;49.892;7.936;2023-04-23T17:27:42;15.00;99.90
13682;DHT22;6913;49.892;7.936;2023-04-23T17:30:09;15.00;99.90
13682;DHT22;6913;49.892;7.936;2023-04-23T17:32:36;15.00;99.90
13682;DHT22;6913;49.892;7.936;2023-04-23T17:35:05;15.00;99.90
13682;DHT22;6913;49.892;7.936;2023-04-23T17:37:32;14.90;99.90
13682;DHT22;6913;49.892;7.936;2023-04-23T17:39:59;14.90;99.90
13682;DHT22;6913;49.892;7.936;2023-04-23T17:42:26;14.60;99.90
13682;DHT22;6913;49.892;7.936;2023-04-23T17:44:52;14.60;99.90
13682;DHT22;6913;49.892;7.936;2023-04-23T17:47:19;14.60;99.90
13682;DHT22;6913;49.892;7.936;2023-04-23T17:49:46;14.50;99.90
13682;DHT22;6913;49.892;7.936;2023-04-23T17:52:14;14.40;99.90
13682;DHT22;6913;49.892;7.936;2023-04-23T17:54:41;14.50;99.90
13682;DHT22;6913;49.892;7.936;2023-04-23T17:57:10;14.40;99.90
13682;DHT22;6913;49.892;7.936;2023-04-23T17:59:37;14.50;99.90
13682;DHT22;6913;49.892;7.936;2023-04-23T18:02:03;14.50;99.90
13682;DHT22;6913;49.892;7.936;2023-04-23T18:04:31;14.40;99.90
13682;DHT22;6913;49.892;7.936;2023-04-23T18:06:59;14.30;99.90
13682;DHT22;6913;49.892;7.936;2023-04-23T18:09:27;14.40;99.90
13682;DHT22;6913;49.892;7.936;2023-04-23T18:11:54;14.40;99.90
13682;DHT22;6913;49.892;7.936;2023-04-23T18:14:21;14.20;99.90
13682;DHT22;6913;49.892;7.936;2023-04-23T18:16:48;14.20;99.90
13682;DHT22;6913;49.892;7.936;2023-04-23T18:19:15;14.10;99.90
13682;DHT22;6913;49.892;7.936;2023-04-23T18:21:42;14.10;99.90
13682;DHT22;6913;49.892;7.936;2023-04-23T18:24:10;14.10;99.90
13682;DHT22;6913;49.892;7.936;2023-04-23T18:26:39;14.20;99.90
13682;DHT22;6913;49.892;7.936;2023-04-23T18:29:05;14.10;99.90
13682;DHT22;6913;49.892;7.936;2023-04-23T18:31:32;14.10;99.90
13682;DHT22;6913;49.892;7.936;2023-04-23T18:33:59;14.10;99.90
13682;DHT22;6913;49.892;7.936;2023-04-23T18:36:30;14.10;99.90
13682;DHT22;6913;49.892;7.936;2023-04-23T18:41:25;13.80;99.90
13682;DHT22;6913;49.892;7.936;2023-04-23T18:43:54;13.90;99.90
13682;DHT22;6913;49.892;7.936;2023-04-23T18:46:21;14.20;99.90
13682;DHT22;6913;49.892;7.936;2023-04-23T18:48:55;13.90;99.90
13682;DHT22;6913;49.892;7.936;2023-04-23T18:51:30;13.70;99.90
13682;DHT22;6913;49.892;7.936;2023-04-23T18:53:58;13.70;99.90
13682;DHT22;6913;49.892;7.936;2023-04-23T18:56:26;13.70;99.90
13682;DHT22;6913;49.892;7.936;2023-04-23T18:58:54;13.70;99.90
13682;DHT22;6913;49.892;7.936;2023-04-23T19:01:21;13.60;99.90
13682;DHT22;6913;49.892;7.936;2023-04-23T19:03:48;13.60;99.90
13682;DHT22;6913;49.892;7.936;2023-04-23T19:06:15;13.60;99.90
13682;DHT22;6913;49.892;7.936;2023-04-23T19:08:42;13.50;99.90
13682;DHT22;6913;49.892;7.936;2023-04-23T19:11:08;13.60;99.90
13682;DHT22;6913;49.892;7.936;2023-04-23T19:13:35;13.50;99.90
13682;DHT22;6913;49.892;7.936;2023-04-23T19:16:03;13.60;99.90
13682;DHT22;6913;49.892;7.936;2023-04-23T19:18:30;13.60;99.90
13682;DHT22;6913;49.892;7.936;2023-04-23T19:20:57;13.50;99.90
13682;DHT22;6913;49.892;7.936;2023-04-23T19:23:24;13.50;99.90
13682;DHT22;6913;49.892;7.936;2023-04-23T19:25:51;13.40;99.90
13682;DHT22;6913;49.892;7.936;2023-04-23T19:28:17;13.30;99.90
13682;DHT22;6913;49.892;7.936;2023-04-23T19:30:44;13.20;99.90
13682;DHT22;6913;49.892;7.936;2023-04-23T19:33:13;13.30;99.90
13682;DHT22;6913;49.892;7.936;2023-04-23T19:35:39;13.70;99.90
13682;DHT22;6913;49.892;7.936;2023-04-23T19:38:06;13.30;99.90
13682;DHT22;6913;49.892;7.936;2023-04-23T19:40:33;13.30;99.90
13682;DHT22;6913;49.892;7.936;2023-04-23T19:43:00;13.10;99.90
13682;DHT22;6913;49.892;7.936;2023-04-23T19:45:27;13.10;99.90
13682;DHT22;6913;49.892;7.936;2023-04-23T19:47:54;13.10;99.90
13682;DHT22;6913;49.892;7.936;2023-04-23T19:50:23;13.20;99.90
13682;DHT22;6913;49.892;7.936;2023-04-23T19:52:50;13.10;99.90
13682;DHT22;6913;49.892;7.936;2023-04-23T19:55:17;13.00;99.90
13682;DHT22;6913;49.892;7.936;2023-04-23T19:57:46;13.10;99.90
13682;DHT22;6913;49.892;7.936;2023-04-23T20:00:13;13.10;99.90
13682;DHT22;6913;49.892;7.936;2023-04-23T20:02:41;13.00;99.90
13682;DHT22;6913;49.892;7.936;2023-04-23T20:05:08;13.00;99.90
13682;DHT22;6913;49.892;7.936;2023-04-23T20:07:37;12.90;99.90
13682;DHT22;6913;49.892;7.936;2023-04-23T20:10:04;12.90;99.90
13682;DHT22;6913;49.892;7.936;2023-04-23T20:12:31;12.80;99.90
13682;DHT22;6913;49.892;7.936;2023-04-23T20:14:59;12.70;99.90
13682;DHT22;6913;49.892;7.936;2023-04-23T20:17:26;12.70;99.90
13682;DHT22;6913;49.892;7.936;2023-04-23T20:19:54;12.60;99.90
13682;DHT22;6913;49.892;7.936;2023-04-23T20:22:21;12.60;99.90
13682;DHT22;6913;49.892;7.936;2023-04-23T20:24:49;12.60;99.90
13682;DHT22;6913;49.892;7.936;2023-04-23T20:27:17;12.50;99.90
13682;DHT22;6913;49.892;7.936;2023-04-23T20:29:44;12.50;99.90
13682;DHT22;6913;49.892;7.936;2023-04-23T20:32:11;12.50;99.90
13682;DHT22;6913;49.892;7.936;2023-04-23T20:34:38;12.80;99.90
13682;DHT22;6913;49.892;7.936;2023-04-23T20:37:05;12.40;99.90
13682;DHT22;6913;49.892;7.936;2023-04-23T20:39:34;12.40;99.90
13682;DHT22;6913;49.892;7.936;2023-04-23T20:42:03;12.40;99.90
13682;DHT22;6913;49.892;7.936;2023-04-23T20:44:30;12.40;99.90
13682;DHT22;6913;49.892;7.936;2023-04-23T20:46:57;12.30;99.90
13682;DHT22;6913;49.892;7.936;2023-04-23T20:49:26;12.30;99.90
13682;DHT22;6913;49.892;7.936;2023-04-23T20:51:53;12.30;99.90
13682;DHT22;6913;49.892;7.936;2023-04-23T20:54:20;12.40;99.90
13682;DHT22;6913;49.892;7.936;2023-04-23T20:56:46;12.40;99.90
13682;DHT22;6913;49.892;7.936;2023-04-23T20:59:20;12.40;99.90
13682;DHT22;6913;49.892;7.936;2023-04-23T21:01:47;12.30;99.90
13682;DHT22;6913;49.892;7.936;2023-04-23T21:04:14;12.20;99.90
13682;DHT22;6913;49.892;7.936;2023-04-23T21:06:41;12.10;99.90
13682;DHT22;6913;49.892;7.936;2023-04-23T21:09:08;12.00;99.90
13682;DHT22;6913;49.892;7.936;2023-04-23T21:11:35;12.00;99.90
13682;DHT22;6913;49.892;7.936;2023-04-23T21:14:02;11.90;99.90
13682;DHT22;6913;49.892;7.936;2023-04-23T21:16:34;11.90;99.90
13682;DHT22;6913;49.892;7.936;2023-04-23T21:19:01;12.00;99.90
13682;DHT22;6913;49.892;7.936;2023-04-23T21:21:28;12.00;99.90
13682;DHT22;6913;49.892;7.936;2023-04-23T21:23:56;12.00;99.90
13682;DHT22;6913;49.892;7.936;2023-04-23T21:26:24;12.00;99.90
13682;DHT22;6913;49.892;7.936;2023-04-23T21:28:51;12.00;99.90
13682;DHT22;6913;49.892;7.936;2023-04-23T21:31:24;11.90;99.90
13682;DHT22;6913;49.892;7.936;2023-04-23T21:33:55;11.40;99.90
13682;DHT22;6913;49.892;7.936;2023-04-23T21:36:22;11.50;99.90
13682;DHT22;6913;49.892;7.936;2023-04-23T21:38:49;11.70;99.90
13682;DHT22;6913;49.892;7.936;2023-04-23T21:41:17;11.50;99.90
13682;DHT22;6913;49.892;7.936;2023-04-23T21:43:44;11.60;99.90
13682;DHT22;6913;49.892;7.936;2023-04-23T21:46:11;11.50;99.90
13682;DHT22;6913;49.892;7.936;2023-04-23T21:48:37;11.60;99.90
13682;DHT22;6913;49.892;7.936;2023-04-23T21:51:06;11.60;99.90
13682;DHT22;6913;49.892;7.936;2023-04-23T21:53:33;11.40;99.90
13682;DHT22;6913;49.892;7.936;2023-04-23T21:56:00;11.50;99.90
13682;DHT22;6913;49.892;7.936;2023-04-23T21:58:27;11.60;99.90
13682;DHT22;6913;49.892;7.936;2023-04-23T22:00:55;11.70;99.90
13682;DHT22;6913;49.892;7.936;2023-04-23T22:03:22;11.70;99.90
13682;DHT22;6913;49.892;7.936;2023-04-23T22:05:49;12.20;99.90
13682;DHT22;6913;49.892;7.936;2023-04-23T22:08:18;11.80;99.90
13682;DHT22;6913;49.892;7.936;2023-04-23T22:10:44;11.80;99.90
13682;DHT22;6913;49.892;7.936;2023-04-23T22:13:11;11.90;99.90
13682;DHT22;6913;49.892;7.936;2023-04-23T22:15:38;11.90;99.90
13682;DHT22;6913;49.892;7.936;2023-04-23T22:18:05;11.90;99.90
13682;DHT22;6913;49.892;7.936;2023-04-23T22:20:32;11.80;99.90
13682;DHT22;6913;49.892;7.936;2023-04-23T22:22:59;11.80;99.90
13682;DHT22;6913;49.892;7.936;2023-04-23T22:25:27;11.80;99.90
13682;DHT22;6913;49.892;7.936;2023-04-23T22:27:54;11.80;99.90
13682;DHT22;6913;49.892;7.936;2023-04-23T22:30:21;11.80;99.90
13682;DHT22;6913;49.892;7.936;2023-04-23T22:32:48;11.80;99.90
13682;DHT22;6913;49.892;7.936;2023-04-23T22:35:14;11.70;99.90
13682;DHT22;6913;49.892;7.936;2023-04-23T22:37:41;11.70;99.90
13682;DHT22;6913;49.892;7.936;2023-04-23T22:40:09;11.60;99.90
13682;DHT22;6913;49.892;7.936;2023-04-23T22:42:37;11.60;99.90
13682;DHT22;6913;49.892;7.936;2023-04-23T22:45:05;11.50;99.90
13682;DHT22;6913;49.892;7.936;2023-04-23T22:47:33;11.60;99.90
13682;DHT22;6913;49.892;7.936;2023-04-23T22:49:59;11.60;99.90
13682;DHT22;6913;49.892;7.936;2023-04-23T22:52:27;11.60;99.90
13682;DHT22;6913;49.892;7.936;2023-04-23T22:54:53;11.60;99.90
13682;DHT22;6913;49.892;7.936;2023-04-23T22:57:21;11.60;99.90
13682;DHT22;6913;49.892;7.936;2023-04-23T22:59:49;11.60;99.90
13682;DHT22;6913;49.892;7.936;2023-04-23T23:02:16;11.40;99.90
13682;DHT22;6913;49.892;7.936;2023-04-23T23:04:43;11.60;99.90
13682;DHT22;6913;49.892;7.936;2023-04-23T23:07:10;11.40;99.90
13682;DHT22;6913;49.892;7.936;2023-04-23T23:09:36;11.40;99.90
13682;DHT22;6913;49.892;7.936;2023-04-23T23:12:03;11.40;99.90
13682;DHT22;6913;49.892;7.936;2023-04-23T23:14:30;11.30;99.90
13682;DHT22;6913;49.892;7.936;2023-04-23T23:16:59;11.30;99.90
13682;DHT22;6913;49.892;7.936;2023-04-23T23:19:25;11.40;99.90
13682;DHT22;6913;49.892;7.936;2023-04-23T23:21:52;11.30;99.90
13682;DHT22;6913;49.892;7.936;2023-04-23T23:24:20;11.40;99.90
13682;DHT22;6913;49.892;7.936;2023-04-23T23:26:46;11.40;99.90
13682;DHT22;6913;49.892;7.936;2023-04-23T23:29:13;11.40;99.90
13682;DHT22;6913;49.892;7.936;2023-04-23T23:31:40;11.40;99.90
13682;DHT22;6913;49.892;7.936;2023-04-23T23:34:08;11.30;99.90
13682;DHT22;6913;49.892;7.936;2023-04-23T23:36:35;11.40;99.90
13682;DHT22;6913;49.892;7.936;2023-04-23T23:39:02;11.40;99.90
13682;DHT22;6913;49.892;7.936;2023-04-23T23:41:29;11.50;99.90
13682;DHT22;6913;49.892;7.936;2023-04-23T23:43:56;11.30;99.90
13682;DHT22;6913;49.892;7.936;2023-04-23T23:46:23;11.30;99.90
13682;DHT22;6913;49.892;7.936;2023-04-23T23:48:50;11.40;99.90
13682;DHT22;6913;49.892;7.936;2023-04-23T23:51:18;11.20;99.90
13682;DHT22;6913;49.892;7.936;2023-04-23T23:53:45;11.20;99.90
13682;DHT22;6913;49.892;7.936;2023-04-23T23:56:12;11.50;99.90
13682;DHT22;6913;49.892;7.936;2023-04-23T23:58:38;11.10;99.90
